Cristian Moreno

Olheiro-Chefe - Zamora
25 Set 2027
Sábado
Processo

Personalidade

Adaptabilidade (17) Ambição (18) Controvérsia (7) Lealdade (16) Pressão (2) Profissionalismo (17) Espírito Esportivo (20) Temperamento (7)

Perfil

Estilo de Treinamento Democrático
Licença Nacional B
Determinação 8
Gestão de Pessoas 4
Motivação 5
Disciplina 8
Satisfação no Trabalho
100%
Fadiga
0%
Função Olheiro-Chefe
Salário 62.7K p/s
Contrato 14.03.2030

Desempenho

Comportamento Bom
Eficácia do Treinamento
44%
Desenvolvimento do Jogador
50%
Prevenção de Lesões
20%
Implementação Tática
40%

Eventos Recentes

Recomendou um alvo de transferência agora
Recomendou um alvo de transferência agora
Recomendou um alvo de transferência agora
Recomendou um alvo de transferência agora
Participou de uma reunião de recrutamento agora
Participou de uma reunião de recrutamento agora
Avaliou um jogador agora
Avaliou um jogador agora

Monitorando agora

210
Jogador Clube Status Habilidade Confiança Observado Última observação Último voto
Federico Pérez Agropecuario Argentino Ativo 110 / 113 40% 2 24.09.2027 -
Tomás Ferreyra Defensores Unidos Ativo 112 / 108 40% 1 24.09.2027 -
Santiago Kubiszyn Morón Ativo 112 / 110 40% 1 24.09.2027 -
Luis Otávio Toronto FC Ativo 110 / 126 40% 2 23.09.2027 -
Jonatan Resquin Quilmes Ativo 85 / 88 40% 3 23.09.2027 -
Joel Ezra Enyimba Ativo 97 / 98 40% 1 23.09.2027 -
Juan Orellana San Martín Ativo 116 / 110 40% 1 23.09.2027 -
Agustín Bolívar Quilmes Ativo 112 / 113 40% 1 23.09.2027 -
Federico Ulayar Talleres Ativo 103 / 102 40% 1 23.09.2027 -
Matías Bazzi Talleres Ativo 101 / 95 40% 2 22.09.2027 -
Braian Aranda Agropecuario Argentino Ativo 113 / 122 40% 1 22.09.2027 -
Raúl Lozano Quilmes Ativo 119 / 118 40% 1 22.09.2027 -
Ulises Ortegoza Talleres Ativo 128 / 122 40% 5 19.09.2027 -
Onuorah Onyedika Kun Khalifat Ativo 85 / 95 40% 3 19.09.2027 -
Lucas Velásquez Huachipato Ativo 98 / 93 40% 2 19.09.2027 -
Matías Machado Racing Ativo 111 / 118 40% 2 19.09.2027 -
Maico Quiroz Güemes Ativo 110 / 121 40% 1 19.09.2027 -
Sergio Casseres Llaneros Ativo 74 / 85 40% 1 19.09.2027 -
Mauro Osores San Martín SJ Ativo 109 / 117 40% 2 17.09.2027 -
Gabriel Risso Patrón Colón Ativo 116 / 119 40% 2 17.09.2027 -
Augusto Schott Talleres Ativo 119 / 127 40% 1 17.09.2027 -
Dixon Rentería San Miguel Ativo 107 / 107 40% 1 16.09.2027 -
Celías Ingenthron Platense Ativo 113 / 120 40% 3 15.09.2027 -
Diego Cheuquepal Racing Ativo 99 / 101 40% 2 15.09.2027 -
Martín García Atlanta Ativo 117 / 113 40% 2 15.09.2027 -
Lucas Angelini Temperley Ativo 113 / 107 40% 1 15.09.2027 -
Nicolás Henry Tristán Suárez Ativo 117 / 105 40% 1 15.09.2027 -
Esteban de Lima Tacuarembo Ativo 90 / 102 40% 1 15.09.2027 -
Samuel Lucero Defensa y Justicia Ativo 120 / 120 40% 2 12.09.2027 -
Lorenzo Monti Temperley Ativo 107 / 114 40% 1 12.09.2027 -
Ian Pérez Defensores Ativo 104 / 113 40% 1 12.09.2027 -
Jorge Cardona Alianza Petrolera Ativo 113 / 110 40% 1 09.09.2027 -
Agustín Dattola Almirante Brown Ativo 118 / 118 40% 1 09.09.2027 -
Joaquín Varela Gimnasia y Esgrima Ativo 104 / 103 40% 1 08.09.2027 -
Iván Villalba Independiente Rivadavia Ativo 117 / 122 40% 1 08.09.2027 -
Nicolás Demartini Temperley Ativo 121 / 118 40% 1 07.09.2027 -
Bruno Leyes Godoy Cruz Ativo 124 / 127 40% 1 07.09.2027 -
Felipe Faúndez O'Higgins Ativo 100 / 113 40% 3 06.09.2027 -
Román Lozada Vélez Ativo 94 / 101 40% 2 06.09.2027 -
Lautaro Dufur Rentistas Ativo 101 / 114 40% 2 06.09.2027 -
Thomas Ortega Quilmes Ativo 110 / 114 40% 1 06.09.2027 -
Mateo Mendoza Godoy Cruz Ativo 131 / 136 40% 1 06.09.2027 -
Gonzalo Gamarra Defensores Ativo 106 / 109 40% 1 06.09.2027 -
Juan Camilo Córdoba Deportivo Pereira Ativo 85 / 100 40% 3 04.09.2027 -
Tobías Ramírez Sevilla Ativo 124 / 124 40% 4 03.09.2027 -
Hosea Michael Remo Stars Ativo 86 / 101 40% 1 03.09.2027 -
Alan Morinigo Olimpia Ativo 111 / 116 40% 5 02.09.2027 -
Gift Isioma Warri Wolves Ativo 74 / 77 40% 2 02.09.2027 -
Jofrank Istifanus Nasarawa United Ativo 88 / 85 40% 1 02.09.2027 -
Godswill Kenu Bayelsa United Ativo 65 / 66 40% 1 01.09.2027 -
Matías Argüello Libertad Ativo 104 / 109 40% 2 29.08.2027 -
Óscar Hinojosa Metropolitanos Ativo 80 / 82 40% 1 29.08.2027 -
Maxwell Azafokpe Inter Allies Ativo 82 / 86 40% 2 28.08.2027 -
Ivan Borges Defensores Ativo 82 / 96 40% 1 28.08.2027 -
Juan Giménez Rosario Central Ativo 115 / 125 40% 1 27.08.2027 -
Alejandro Leiva Patronato Ativo 92 / 108 40% 1 27.08.2027 -
Chibueze Oputa Rangers International Ativo 82 / 103 40% 1 26.08.2027 -
Kaick FC Dallas Ativo 112 / 100 40% 1 24.08.2027 -
Matías Canedo Rampla Juniors Ativo 89 / 97 40% 1 21.08.2027 -
Daniel Sanchez Universitario Popayan Ativo 82 / 92 40% 1 21.08.2027 -
Maximiliano Duarte Independiente Ativo 103 / 109 40% 1 20.08.2027 -
Geanfranco Rodríguez Defensor Sporting Ativo 90 / 90 40% 1 20.08.2027 -
Facundo Balatti Penarol Ativo 100 / 106 40% 1 10.08.2027 -
Tommaso Cecotti Carpi Ativo 94 / 107 40% 1 10.08.2027 -
Martín Jiménez Audax Italiano Ativo 102 / 107 40% 1 09.08.2027 -
Tiago Gordillo San Miguel Ativo 88 / 100 40% 3 06.08.2027 -
Agustín Obregón River Plate Ativo 114 / 115 40% 1 06.08.2027 -
Gonçalo Oliveira Benfica Ativo 114 / 122 40% 1 05.08.2027 -
Sheriff Amuda Shooting Stars Ativo 91 / 86 40% 1 04.08.2027 -
Leonardo Mendicino Bari Ativo 110 / 121 40% 1 04.08.2027 -
Santiago Espíndola River Plate Ativo 100 / 117 40% 1 03.08.2027 -
Enzo Cardozo Virtus Entella Ativo 121 / 109 40% 3 02.08.2027 -
Ibrahim Sabiu Bendel Insurance Ativo 86 / 83 40% 1 02.08.2027 -
Dylan Gorosito Boca Juniors Ativo 110 / 124 40% 1 02.08.2027 -
Franck Fomeyem Córdoba Ativo 133 / 126 40% 8 12.07.2027 -
Morten Frendrup Genoa Ativo 144 / 139 40% 1 12.07.2027 -
Aaron Drinan Swindon Town Ativo 100 / 115 40% 2 05.07.2027 -
Oscar Ferraresi Llaneros Ativo 115 / 106 40% 1 05.07.2027 -
Silvio Merkaj Vicenza Ativo 116 / 118 40% 1 05.07.2027 -
Mauricio Márquez Caracas Ativo 109 / 111 40% 1 28.06.2027 -
Brayan Gil Baltika Ativo 134 / 121 40% 1 28.06.2027 -
David Okereke Cremonese Ativo 124 / 122 40% 1 28.06.2027 -
Stefano Di Mario Virtus Entella Ativo 117 / 125 40% 2 21.06.2027 -
Corrado Riviera Renate Ativo 98 / 105 40% 2 21.06.2027 -
Álex Lebarbier Real Sociedad Ativo 102 / 106 40% 1 21.06.2027 -
Bruno Méndez Toluca Ativo 138 / 144 40% 2 16.06.2027 -
Matteo Francesconi Cesena Ativo 120 / 134 40% 1 16.06.2027 -
Carlos Caicedo La Equidad Ativo 112 / 121 40% 1 16.06.2027 -
Andrea Carboni Monza Ativo 137 / 137 40% 2 15.06.2027 -
Junior Rondon Atletico Venezuela Perdido 97 / 103 76% 1 14.06.2027 Aprovar
Bjorn Meijer Sampdoria Ativo 127 / 121 40% 3 13.06.2027 -
Simone Potop AlbinoLeffe Ativo 106 / 115 40% 2 11.06.2027 -
Ilario Monterisi Frosinone Ativo 129 / 133 40% 2 11.06.2027 -
Samuele Birindelli Monza Ativo 126 / 126 40% 1 09.06.2027 -
Simone Davi Südtirol Ativo 114 / 113 40% 1 07.06.2027 -
Nicola Pietrangeli Juve Stabia Ativo 120 / 124 40% 1 05.06.2027 -
Nicolò Radaelli Mantova Ativo 111 / 126 40% 1 04.06.2027 -
Anthony Oyono Frosinone Ativo 123 / 118 40% 1 04.06.2027 -
Víctor Chust Elche Ativo 126 / 142 40% 6 01.06.2027 -
Konstantin Tyukavin Arsenal Ativo 135 / 136 92% 1 01.06.2027 Aprovar
Sandi Elsnik NK Domzale Ativo 103 / 104 66% 1 01.06.2027 Aprovar
Davit Volkovi Zira Ativo 115 / 115 66% 1 01.06.2027 Aprovar
Luan Patrick Estrela da Amadora Ativo 126 / 116 40% 4 30.05.2027 -
Federico Baschirotto Cremonese Ativo 143 / 135 40% 6 30.05.2027 -
Emiliano Purita All Boys Ativo 102 / 111 40% 1 30.05.2027 -
Jordan Gabriel Port Vale Ativo 114 / 109 40% 5 29.05.2027 -
Josh Neufville Bradford City Ativo 118 / 100 40% 5 29.05.2027 -
Julio Alonso Huesca Ativo 131 / 115 40% 8 28.05.2027 -
Brendan Wiredu Plymouth Argyle Ativo 104 / 119 40% 5 27.05.2027 -
Nicolás Fernández Tristán Suárez Ativo 111 / 109 40% 1 27.05.2027 -
Gorka Gorosabel Real Sociedad Ativo 113 / 116 40% 1 27.05.2027 -
Julián Palacios Envigado Ativo 117 / 119 40% 1 26.05.2027 -
Ignacio Perruzzi Celta Ativo 118 / 124 40% 7 23.05.2027 -
Toni Abad Ceuta Ativo 118 / 124 40% 3 18.05.2027 -
Júnior Firpo Betis Ativo 132 / 138 40% 3 18.05.2027 -
Santiago Longo Belgrano Ativo 129 / 125 40% 1 17.05.2027 -
Iker Pozo Rodina Ativo 115 / 117 40% 5 16.05.2027 -
Leo Goglichidze Rodina Ativo 122 / 117 40% 13 15.05.2027 -
Lander Astiazarán Real Sociedad Ativo 103 / 100 40% 3 15.05.2027 -
Nacho Martín Gijón Ativo 113 / 127 40% 1 15.05.2027 -
Miro Muheim Hamburger SV Ativo 133 / 135 40% 1 13.05.2027 -
Josen Escobar Athletic Bilbao Ativo 111 / 123 40% 5 12.05.2027 -
Sandi Lovrić Hellas Verona Ativo 130 / 123 40% 7 12.05.2027 Observar
Marcio Gómez Racing Ativo 107 / 108 40% 1 12.05.2027 -
Mathías de Ritis San Lorenzo Ativo 112 / 125 40% 2 09.05.2027 -
Ítalo Ural Ativo 111 / 119 40% 4 08.05.2027 -
Jorge Cabello Levante Ativo 128 / 117 40% 3 07.05.2027 -
Diego Barri Castellón Ativo 123 / 125 40% 5 06.05.2027 -
Agustín Sández Rosario Central Ativo 129 / 117 40% 2 04.05.2027 -
Salvador Manríquez Dorados Ativo 95 / 100 40% 5 04.05.2027 -
Jonathan De Irastorza Levante Ativo 118 / 117 40% 4 03.05.2027 -
Andile Zwane SuperSport United Ativo 101 / 109 40% 2 29.04.2027 -
Isma Ruiz Córdoba Ativo 134 / 124 40% 2 29.04.2027 -
Mario Hermoso AS Roma Ativo 136 / 146 40% 2 29.04.2027 -
Cesare Pogliano Pro Patria Ativo 101 / 95 40% 1 26.04.2027 -
Léo Cordeiro Ural Ativo 107 / 122 40% 5 25.04.2027 -
Braian Rivero Atlanta Ativo 119 / 107 40% 1 25.04.2027 -
Óscar Rivas Vitoria Guimaraes Ativo 121 / 118 40% 3 24.04.2027 -
Nicolás Domínguez Nottingham Forest Ativo 140 / 140 40% 1 24.04.2027 -
Eldar Ćivić Baltika Ativo 127 / 128 40% 4 23.04.2027 -
Jon Balda Real Sociedad Ativo 122 / 116 40% 1 23.04.2027 -
Jarleysom Portimonense Ativo 105 / 110 40% 1 22.04.2027 -
Philipp Sander Borussia Mönchengladbach Ativo 128 / 123 40% 2 21.04.2027 -
Marat Bokoev Akron Ativo 116 / 111 40% 3 18.04.2027 -
Delvin Alfonzo Deportivo Tachira Ativo 124 / 111 40% 1 18.04.2027 -
Marco Bellich Juve Stabia Ativo 127 / 111 40% 1 14.04.2027 -
Antonis Siatounis Potenza Ativo 111 / 101 40% 1 14.04.2027 -
Juan Pablo Córdoba Gimnasia y Esgrima Ativo 111 / 119 40% 1 14.04.2027 -
Job Ochieng Real Sociedad Ativo 103 / 104 40% 3 10.04.2027 -
Ignacio Aliseda Cerro Porteno Ativo 132 / 123 40% 1 10.04.2027 -
Naïs Djouahra Arouca Ativo 123 / 132 40% 2 09.04.2027 -
Manu Rodríguez Gijón Ativo 101 / 114 40% 1 05.04.2027 -
Soltmurad Bakaev Rodina Ativo 113 / 114 40% 1 05.04.2027 -
Edarlyn Reyes Arsenal Tula Ativo 114 / 117 40% 1 04.04.2027 -
Jalen Blesa Rio Ave Ativo 121 / 127 40% 1 03.04.2027 -
Fernando Costanza Krylya Sovetov Ativo 112 / 122 40% 2 29.03.2027 -
João Muniz Sporting CP Ativo 122 / 119 40% 1 29.03.2027 -
Mitchel Bakker Rostov Ativo 122 / 122 40% 1 27.03.2027 -
Edgardo Fariña Nizhniy Novgorod Ativo 124 / 123 40% 1 25.03.2027 -
Moussa Ballo Afrique Foot Elite Ativo 98 / 105 40% 1 23.03.2027 -
Jhon Murillo America de Cali Negociando 112 / 121 40% 1 21.03.2027 Mais informações
Temirkan Sundukov Dinamo Makhachkala Ativo 112 / 100 40% 2 19.03.2027 -
Arsen Adamov Akhmat Grozny Ativo 112 / 117 40% 2 19.03.2027 -
Nikita Kakkoev Nizhniy Novgorod Ativo 115 / 107 40% 1 16.03.2027 -
Jofre Torrents Ajax Ativo 110 / 138 40% 1 16.03.2027 -
Oleg Lanin Shinnik Ativo 97 / 97 40% 1 14.03.2027 -
Ilja Agapov Ufa Ativo 117 / 122 40% 3 13.03.2027 -
Ipalibo Jack Hamrun Spartans Ativo 108 / 98 40% 1 12.03.2027 -
Victor Melekhin Rostov Ativo 128 / 114 40% 1 11.03.2027 -
Evgeny Kharin Ural Ativo 108 / 93 40% 1 10.03.2027 -
Matthew Guillaumier Hamrun Spartans Ativo 113 / 94 40% 1 10.03.2027 -
Pavel Maslov Chaika Ativo 103 / 94 40% 2 08.03.2027 -
Jonathan Okoronkwo Torpedo Moscow Ativo 95 / 109 40% 1 07.03.2027 -
Ousmane Ndong Akhmat Grozny Ativo 108 / 106 40% 1 07.03.2027 -
Roger Manríque Fortaleza Ativo 107 / 106 40% 1 06.03.2027 -
Stefan Lončar Akron Ativo 106 / 104 40% 2 05.03.2027 -
Ronaldo De Jesús Lanús Ativo 117 / 116 40% 2 04.03.2027 -
Robert Mejía Orenburg Ativo 114 / 115 40% 1 02.03.2027 -
Doğucan Haspolat Westerlo Ativo 126 / 120 40% 2 27.02.2027 -
Elias Telles Kolos Ativo 98 / 110 40% 1 26.02.2027 -
Daniel Rivillo SC Freiburg Ativo 113 / 97 40% 1 24.02.2027 -
Alan Tsaraev Arsenal Tula Ativo 105 / 112 40% 2 22.02.2027 -
Nikolay Rasskazov Krylya Sovetov Ativo 115 / 117 40% 1 21.02.2027 -
Alexandr Ektov Nizhniy Novgorod Ativo 107 / 114 40% 2 20.02.2027 -
Liziero Nacional Ativo 136 / 128 40% 1 19.02.2027 -
Sandro Trémoulet Radnik Surdulica Ativo 92 / 97 40% 1 19.02.2027 -
Peru Nolaskoain Eibar Ativo 110 / 116 40% 3 15.02.2027 -
Pedro Bicalho Qarabag Ativo 123 / 122 40% 1 14.02.2027 -
Kevin Pina Krasnodar Ativo 121 / 120 40% 1 10.02.2027 -
Jakub Bednarczyk Gornik Leczna Ativo 102 / 118 40% 1 07.02.2027 -
Thomas Galdames Krylya Sovetov Ativo 114 / 108 40% 1 07.02.2027 -
Ognjen Bjeličić Hamrun Spartans Ativo 108 / 115 40% 1 04.02.2027 -
Stanislav Magkeev Fakel Ativo 109 / 110 40% 1 03.02.2027 -
Aarón Quiros Vélez Ativo 124 / 132 40% 1 22.12.2026 -
Francho Serrano Getafe Ativo 127 / 125 40% 1 22.12.2026 -
Xavier Biscayzacú Sporting CP Ativo 132 / 121 40% 1 14.12.2026 -
Thalys Almería Ativo 114 / 115 40% 1 14.12.2026 -
Dario Vizinger NK Maribor Ativo 111 / 111 66% 1 01.12.2026 Aprovar
Bahlul Mammadov Inter Perdido 115 / 115 66% 1 01.12.2026 Aprovar
Andres Martinez Llaneros Ativo 74 / 79 42% 1 / 1m 02.09.2026 -
Mateo Raschia Unión de Santa Fe Ativo 92 / 94 40% 1 09.08.2026 -
Matías Escobar San Miguel Ativo 82 / 90 40% 1 08.08.2026 -
Federico Montiel Agropecuario Argentino Ativo 88 / 95 40% 1 07.08.2026 -
Patricio Albornoz Atlético Tucumán Ativo 94 / 98 40% 1 07.08.2026 -
Gali Balanta Deportes Tolima Ativo 82 / 84 40% 1 06.08.2026 -
Lautaro Amadé Defensa y Justicia Ativo 110 / 108 40% 1 04.08.2026 -
Eugenio Raggio Platense Ativo 109 / 126 40% 1 02.08.2026 -
Víctor Felipe Méndez Colo-Colo Ativo 123 / 115 40% 1 01.08.2026 -
Rodrigo Amarilla San Lorenzo Ativo 110 / 110 40% 1 01.08.2026 -
Rodrigo González Aldosivi Ativo 115 / 113 40% 1 01.08.2026 -